• Join FlightAware (Why Join?)
  • Login
  • US Flag 
09:33PM EDT


 

Airport Tracker/Info


-or-


 

Live Flight TrackerFlight Track Log ✈ SWA481 ✈ 15-May-2013 ✈ KMDW - KPIT

Flight Track Log - Related Links

Times and Time Zones

All times are in EDT time to prevent confusion due to time zone crossing. See the SWA481 flight status page for this flight to view local times or setup timezone preferences in your user account.

Time Position Orientation Groundspeed Altitude Reporting Facility
EDT Latitude Longitude Course Direction KTS MPH feet Rate Location/Type
07:07PM 41.8000 -87.6333 90° East 241 277 4,700  Level Chicago TRACON
07:07PM 41.8056 -87.5731 83° East 236 272 5,000 540 Climbing Chicago Center
07:09PM 41.8067 -87.4658 89° East 277 319 5,700 2,040 Climbing Chicago Center
07:10PM 41.8064 -87.3564 90° East 291 335 9,300 3,360 Climbing Chicago Center
07:11PM 41.7953 -87.2397 97° East 315 362 12,700 3,000 Climbing Chicago Center
07:12PM 41.7650 -87.0783 104° East 374 430 15,500 2,940 Climbing Chicago Center
07:13PM 41.7619 -86.9272 92° East 405 466 18,800 2,940 Climbing Chicago Center
07:14PM 41.7647 -86.7717 89° East 417 480 21,600 2,700 Climbing Chicago Center
07:15PM 41.7658 -86.5919 89° East 437 503 24,500 2,460 Climbing Chicago Center
07:16PM 41.7678 -86.4239 89° East 449 517 26,700 2,100 Climbing Chicago Center
07:17PM 41.7636 -86.2497 92° East 467 537 28,900 2,160 Climbing Chicago Center
07:18PM 41.7539 -86.0753 94° East 472 543 31,200 1,980 Climbing Chicago Center
07:19PM 41.7428 -85.9031 95° East 467 537 33,100 1,740 Climbing Chicago Center
07:20PM 41.7314 -85.7269 95° East 472 543 34,800 900 Climbing Chicago Center
07:21PM 41.7211 -85.5489 94° East 475 547 35,000 60 Climbing Chicago Center
07:22PM 41.7044 -85.3550 97° East 471 542 35,000  Level Chicago Center
07:23PM 41.6967 -85.1819 93° East 492 566 35,000  Level Chicago Center
07:24PM 41.6858 -85.0325 95° East 466 536 35,000  Level Cleveland Center
07:25PM 41.6736 -84.8592 95° East 466 536 35,000  Level Cleveland Center
07:26PM 41.6636 -84.6833 94° East 466 536 35,000  Level Cleveland Center
07:27PM 41.6339 -84.5147 103° East 464 534 35,000  Level Cleveland Center
07:28PM 41.6061 -84.3464 102° East 459 528 35,000  Level Cleveland Center
07:29PM 41.5719 -84.1778 105° East 459 528 35,000  Level Cleveland Center
07:30PM 41.5397 -84.0067 104° East 464 534 35,000  Level Cleveland Center
07:31PM 41.5092 -83.8386 104° East 464 534 35,000  Level Cleveland Center
07:32PM 41.4783 -83.6708 104° East 464 534 35,000  Level Cleveland Center
07:33PM 41.4453 -83.5031 105° East 464 534 35,000  Level Cleveland Center
07:34PM 41.4142 -83.3297 103° East 469 540 35,000 -540 Level Cleveland Center
07:35PM 41.3825 -83.1625 104° East 469 540 34,000 -960 Descending Cleveland Center
07:36PM 41.3508 -82.9953 104° East 469 540 33,100 -960 Descending Cleveland Center
07:37PM 41.3189 -82.8253 104° East 464 534 32,100 -960 Descending Cleveland Center
07:38PM 41.2847 -82.6500 104° East 475 547 31,200 -960 Descending Cleveland Center
07:39PM 41.2500 -82.4778 105° East 481 554 30,200 -960 Descending Cleveland Center
07:40PM 41.2175 -82.3056 104° East 481 554 29,300 -960 Descending Cleveland Center
07:41PM 41.1822 -82.1336 105° East 481 554 28,300 -960 Descending Cleveland Center
07:42PM 41.1550 -81.9786 103° East 481 554 27,400 -960 Descending Cleveland Center
07:43PM 41.1236 -81.8153 104° East 468 539 26,400 -1,500 Descending Cleveland Center
07:44PM 41.0900 -81.6492 105° East 463 533 24,500 -1,740 Descending Cleveland Center
07:45PM 41.0558 -81.4944 106° East 451 519 23,000 -780 Descending Cleveland Center
07:46PM 41.0256 -81.3400 105° East 444 511 23,000 -1,080 Level Cleveland Center
07:47PM 40.9911 -81.1856 106° East 437 503 20,900 -2,700 Descending Cleveland Center
07:48PM 40.9586 -81.0258 105° East 437 503 17,700 -3,240 Descending Cleveland Center
07:49PM 40.8922 -80.8936 124° Southeast 426 490 14,500 -2,340 Descending Cleveland Center
07:50PM 40.8300 -80.7642 122° Southeast 426 490 13,100 -1,500 Descending Cleveland Center
07:51PM 40.7758 -80.6433 121° Southeast 404 465 11,600 -1,320 Descending Cleveland Center
07:52PM 40.7281 -80.5311 119° Southeast 375 432 10,500 -1,260 Descending Cleveland Center
07:53PM 40.6819 -80.4269 120° Southeast 346 398 9,100 -1,380 Descending Cleveland Center
07:54PM 40.6400 -80.3231 118° Southeast 334 384 7,800 -1,320 Descending Cleveland Center
07:55PM 40.5981 -80.2111 116° Southeast 317 365 6,500 -660 Descending Cleveland Center
07:56PM 40.5811 -80.1156 103° East 289 333 6,500 -720 Level Cleveland Center
07:57PM 40.5475 -80.0775 139° Southeast 195 224 5,100 -1,440 Descending Cleveland Center
07:59PM 40.4833 -80.2167 143° Southeast  Level FlightAware Approximate
08:06PM 40.4915 -80.2329 143° Southeast  Level Estimated